Time;durP1;ratioP1;P1;durP2;ratioP2;P2;SDS_P1;SDS_P2;PMS_P1;PMS_P2;Temp;Humidity;BMP_temperature;BMP_pressure;BME280_temperature;BME280_humidity;BME280_pressure;Samples;Min_cycle;Max_cycle;Signal;HPM_P1;HPM_P2
2023/07/25 00:02:27;;;;;;;11.63;3.07;;;20.40;71.40;;;;;;5101111;28;20487;-80
2023/07/25 00:04:55;;;;;;;8.53;3.03;;;20.40;71.70;;;;;;5078811;28;20453;-80
2023/07/25 00:07:23;;;;;;;6.30;2.83;;;20.40;71.70;;;;;;5092346;28;20512;-80
2023/07/25 00:09:54;;;;;;;8.60;2.40;;;20.40;71.70;;;;;;5084891;28;20461;-80
2023/07/25 00:12:22;;;;;;;7.30;2.47;;;20.50;71.70;;;;;;5080705;28;20523;-80
2023/07/25 00:14:56;;;;;;;5.73;2.60;;;20.50;71.80;;;;;;5081805;28;20458;-80
2023/07/25 00:17:24;;;;;;;5.57;2.17;;;20.60;71.80;;;;;;5096796;28;20900;-80
2023/07/25 00:19:52;;;;;;;5.70;2.13;;;20.60;71.80;;;;;;5082217;28;21029;-80
2023/07/25 00:22:20;;;;;;;6.03;2.37;;;20.60;71.70;;;;;;5084351;28;20467;-79
2023/07/25 00:24:48;;;;;;;5.27;2.00;;;20.60;71.70;;;;;;5087013;28;20460;-79
2023/07/25 00:27:18;;;;;;;5.20;2.30;;;20.60;71.70;;;;;;5087289;28;20512;-79
2023/07/25 00:29:47;;;;;;;5.47;2.30;;;20.60;71.60;;;;;;5087329;28;21029;-79
2023/07/25 00:32:15;;;;;;;5.10;2.20;;;20.70;71.60;;;;;;5083010;28;20492;-80
2023/07/25 00:34:43;;;;;;;6.00;1.93;;;20.70;71.50;;;;;;5084289;28;20506;-79
2023/07/25 00:37:11;;;;;;;7.23;2.43;;;20.70;71.50;;;;;;5086433;28;20483;-79
2023/07/25 00:39:39;;;;;;;5.50;2.40;;;20.80;71.40;;;;;;5100495;28;20529;-79
2023/07/25 00:42:07;;;;;;;6.37;2.20;;;20.80;71.40;;;;;;5085505;28;20461;-80
2023/07/25 00:44:36;;;;;;;5.43;2.07;;;20.80;71.40;;;;;;5084327;28;20863;-79
2023/07/25 00:47:05;;;;;;;6.70;2.23;;;20.80;71.30;;;;;;5089754;28;21053;-79
2023/07/25 00:49:33;;;;;;;4.97;2.40;;;20.80;71.30;;;;;;5085199;28;20795;-80
2023/07/25 00:52:01;;;;;;;8.87;3.00;;;20.80;71.30;;;;;;5087663;28;20494;-80
2023/07/25 00:54:29;;;;;;;6.33;2.60;;;20.80;71.30;;;;;;5088927;28;20455;-79
2023/07/25 00:56:57;;;;;;;6.93;2.67;;;20.80;71.30;;;;;;5092067;28;21030;-79
2023/07/25 00:59:25;;;;;;;7.83;2.70;;;20.80;71.20;;;;;;5090887;28;20449;-80
2023/07/25 01:01:54;;;;;;;6.60;2.40;;;20.80;71.20;;;;;;5084686;28;20476;-79
2023/07/25 01:04:22;;;;;;;6.37;2.70;;;20.80;71.20;;;;;;5088924;28;20544;-80
2023/07/25 01:06:51;;;;;;;8.30;2.70;;;20.70;71.20;;;;;;5097371;28;20484;-80
2023/07/25 01:09:35;;;;;;;6.20;2.43;;;20.70;71.20;;;;;;5088105;28;20518;-80
2023/07/25 01:12:03;;;;;;;6.00;3.30;;;20.60;71.30;;;;;;5106412;28;20559;-79
2023/07/25 01:14:32;;;;;;;9.03;2.67;;;20.60;71.20;;;;;;5107520;28;20476;-79
2023/07/25 01:17:06;;;;;;;5.80;3.30;;;20.50;71.20;;;;;;5092168;28;20537;-79
2023/07/25 01:19:36;;;;;;;22.53;2.90;;;20.50;71.30;;;;;;5090013;28;20444;-79
2023/07/25 01:22:05;;;;;;;8.57;2.90;;;20.40;71.30;;;;;;5089308;28;20471;-79
2023/07/25 01:24:34;;;;;;;6.60;2.83;;;20.40;71.40;;;;;;5086110;28;20958;-79
2023/07/25 01:27:03;;;;;;;5.53;2.57;;;20.30;71.50;;;;;;5088521;28;20475;-79
2023/07/25 01:29:31;;;;;;;6.17;2.67;;;20.30;71.70;;;;;;5086323;28;20502;-79
2023/07/25 01:32:00;;;;;;;6.07;2.60;;;20.20;71.70;;;;;;5104034;28;21040;-79
2023/07/25 01:34:28;;;;;;;7.80;2.60;;;20.20;71.90;;;;;;5087433;28;20958;-80
2023/07/25 01:36:56;;;;;;;7.70;2.23;;;20.20;72.00;;;;;;5082648;28;20848;-80
2023/07/25 01:39:24;;;;;;;5.63;2.53;;;20.20;72.00;;;;;;5084022;28;20543;-80
2023/07/25 01:41:53;;;;;;;6.63;2.33;;;20.20;72.00;;;;;;5088609;28;20456;-79
2023/07/25 01:44:21;;;;;;;9.40;2.70;;;20.20;72.10;;;;;;5087722;28;20461;-80
2023/07/25 01:46:49;;;;;;;6.97;2.50;;;20.10;72.10;;;;;;5094042;28;20477;-79
2023/07/25 01:49:17;;;;;;;7.27;2.50;;;20.20;72.30;;;;;;5089629;28;20457;-79
2023/07/25 01:51:45;;;;;;;5.53;2.20;;;20.10;72.40;;;;;;5087158;28;20475;-80
2023/07/25 01:54:16;;;;;;;6.60;2.63;;;20.20;72.40;;;;;;5084731;28;20452;-79
2023/07/25 01:56:44;;;;;;;5.87;2.70;;;20.20;72.40;;;;;;5088280;28;20486;-79
2023/07/25 01:59:18;;;;;;;8.10;2.47;;;20.20;72.40;;;;;;5082565;28;20457;-78
2023/07/25 02:01:45;;;;;;;6.40;2.67;;;20.10;72.50;;;;;;5088378;28;20469;-78
2023/07/25 02:04:13;;;;;;;8.03;3.20;;;20.10;72.60;;;;;;5087630;28;20520;-79
2023/07/25 02:06:42;;;;;;;7.33;2.60;;;20.20;72.70;;;;;;5084432;28;20481;-79
2023/07/25 02:09:10;;;;;;;5.33;2.30;;;20.20;72.70;;;;;;5085049;28;20469;-80
2023/07/25 02:11:38;;;;;;;9.63;2.60;;;20.20;72.70;;;;;;5106002;28;20488;-79
2023/07/25 02:14:06;;;;;;;8.80;2.90;;;20.30;72.70;;;;;;5089197;28;20536;-81
2023/07/25 02:16:37;;;;;;;7.50;2.50;;;20.30;72.70;;;;;;5087366;28;20564;-80
2023/07/25 02:19:05;;;;;;;6.90;2.33;;;20.30;72.70;;;;;;5089238;28;20468;-80
2023/07/25 02:21:34;;;;;;;5.63;2.10;;;20.20;72.70;;;;;;5106438;28;20448;-80
2023/07/25 02:24:02;;;;;;;6.07;2.57;;;20.20;72.70;;;;;;5087308;28;20489;-79
2023/07/25 02:26:30;;;;;;;7.33;2.50;;;20.20;72.70;;;;;;5087689;28;20902;-79
2023/07/25 02:28:58;;;;;;;9.50;3.20;;;20.30;72.70;;;;;;5087408;28;20556;-80
2023/07/25 02:31:26;;;;;;;6.90;2.87;;;20.30;72.70;;;;;;5078997;28;20572;-80
2023/07/25 02:33:56;;;;;;;6.70;2.80;;;20.30;72.70;;;;;;5098739;28;20488;-80
2023/07/25 02:36:23;;;;;;;5.67;2.60;;;20.30;72.50;;;;;;5085800;28;20547;-79
2023/07/25 02:38:52;;;;;;;7.13;3.10;;;20.40;72.50;;;;;;5083137;28;20479;-79
2023/07/25 02:41:19;;;;;;;5.93;2.40;;;20.40;72.50;;;;;;5085348;28;20471;-79
2023/07/25 02:43:47;;;;;;;5.93;2.97;;;20.40;72.50;;;;;;5083993;28;20579;-79
2023/07/25 02:46:15;;;;;;;7.10;2.60;;;20.40;72.50;;;;;;5087332;28;20457;-79
2023/07/25 02:48:44;;;;;;;5.00;2.50;;;20.40;72.40;;;;;;5085692;28;20465;-79
2023/07/25 02:51:13;;;;;;;6.47;3.00;;;20.30;72.20;;;;;;5084350;28;20488;-79
2023/07/25 02:53:41;;;;;;;6.33;2.50;;;20.20;72.40;;;;;;5082497;28;20575;-79
2023/07/25 02:56:09;;;;;;;9.67;3.03;;;20.20;72.50;;;;;;5088602;28;21182;-80
2023/07/25 02:58:37;;;;;;;5.90;2.90;;;20.20;72.50;;;;;;5088158;28;20486;-80
2023/07/25 03:01:05;;;;;;;6.53;2.27;;;20.20;72.50;;;;;;5085409;28;20573;-80
2023/07/25 03:03:33;;;;;;;7.93;2.67;;;20.20;72.50;;;;;;5086688;28;20453;-80
2023/07/25 03:06:08;;;;;;;7.40;2.50;;;20.20;72.60;;;;;;5085893;28;20461;-81
2023/07/25 03:08:37;;;;;;;7.17;3.20;;;20.20;72.60;;;;;;5103077;28;20545;-80
2023/07/25 03:11:05;;;;;;;6.47;2.67;;;20.20;72.60;;;;;;5087198;28;21005;-79
2023/07/25 03:13:34;;;;;;;10.70;2.70;;;20.10;72.50;;;;;;5084965;28;20503;-79
2023/07/25 03:16:03;;;;;;;7.30;3.07;;;20.10;72.50;;;;;;5098800;28;20467;-79
2023/07/25 03:18:33;;;;;;;5.70;3.03;;;20.10;72.50;;;;;;5085747;28;20476;-78
2023/07/25 03:21:04;;;;;;;6.10;2.80;;;20.10;72.50;;;;;;5088700;28;20552;-79
2023/07/25 03:23:32;;;;;;;7.37;2.63;;;20.00;72.50;;;;;;5085338;28;20487;-80
2023/07/25 03:26:01;;;;;;;9.93;3.40;;;20.00;72.50;;;;;;5100169;28;20468;-79
2023/07/25 03:28:29;;;;;;;5.83;2.63;;;20.00;72.50;;;;;;5086238;28;20467;-79
2023/07/25 03:30:58;;;;;;;6.50;2.83;;;19.90;72.60;;;;;;5088195;28;20564;-79
2023/07/25 03:33:27;;;;;;;7.60;3.00;;;19.90;72.70;;;;;;5084686;28;20577;-79
2023/07/25 03:35:55;;;;;;;7.60;3.17;;;19.90;72.80;;;;;;5082664;28;20815;-79
2023/07/25 03:38:24;;;;;;;6.97;2.97;;;19.80;72.80;;;;;;5080948;28;20456;-79
2023/07/25 03:40:53;;;;;;;9.43;2.90;;;19.90;72.80;;;;;;5084333;28;21240;-79
2023/07/25 03:43:24;;;;;;;8.70;3.10;;;19.80;72.80;;;;;;5086725;28;20500;-79
2023/07/25 03:45:52;;;;;;;10.80;2.97;;;19.70;72.70;;;;;;5086414;28;20520;-79
2023/07/25 03:48:20;;;;;;;6.70;2.97;;;19.70;72.70;;;;;;5081949;28;20460;-79
2023/07/25 03:50:48;;;;;;;6.77;3.20;;;19.60;72.70;;;;;;5087554;28;21197;-80
2023/07/25 03:53:16;;;;;;;14.60;3.07;;;19.60;72.80;;;;;;5085685;28;20481;-78
2023/07/25 03:55:44;;;;;;;10.27;2.80;;;19.50;72.90;;;;;;5083197;28;20449;-79
2023/07/25 03:58:12;;;;;;;7.10;2.83;;;19.50;73.10;;;;;;5083251;28;20485;-79
2023/07/25 04:00:42;;;;;;;9.10;3.43;;;19.50;73.20;;;;;;5081497;28;20499;-79
2023/07/25 04:03:10;;;;;;;6.00;2.83;;;19.60;73.20;;;;;;5082803;28;21226;-80
2023/07/25 04:05:43;;;;;;;7.30;2.83;;;19.50;73.10;;;;;;5085198;28;20456;-79
2023/07/25 04:08:11;;;;;;;11.80;3.20;;;19.50;73.20;;;;;;5083045;28;20463;-79
2023/07/25 04:10:40;;;;;;;7.20;3.30;;;19.50;73.20;;;;;;5081770;28;20484;-79
2023/07/25 04:13:08;;;;;;;7.63;3.40;;;19.50;73.50;;;;;;5084625;28;20469;-79
2023/07/25 04:15:36;;;;;;;8.10;3.00;;;19.50;73.60;;;;;;5083579;28;20551;-79
2023/07/25 04:18:07;;;;;;;7.73;3.37;;;19.50;73.70;;;;;;5085536;28;20475;-79
2023/07/25 04:20:35;;;;;;;11.13;3.20;;;19.50;73.80;;;;;;5069115;28;20453;-79
2023/07/25 04:23:03;;;;;;;10.60;3.33;;;19.50;73.80;;;;;;5085937;28;20457;-79
2023/07/25 04:25:31;;;;;;;7.70;3.47;;;19.50;73.90;;;;;;5079824;28;20799;-80
2023/07/25 04:27:59;;;;;;;5.93;3.00;;;19.50;74.00;;;;;;5085533;28;20457;-79
2023/07/25 04:30:29;;;;;;;10.27;3.30;;;19.50;74.10;;;;;;5083780;28;20483;-79
2023/07/25 04:32:58;;;;;;;10.03;3.40;;;19.50;74.10;;;;;;5093476;28;20536;-79
2023/07/25 04:35:28;;;;;;;13.13;3.50;;;19.50;74.20;;;;;;5088420;28;20463;-79
2023/07/25 04:37:56;;;;;;;8.87;3.20;;;19.50;74.30;;;;;;5086599;28;20475;-79
2023/07/25 04:40:25;;;;;;;8.70;3.57;;;19.50;74.40;;;;;;5079124;28;20456;-79
2023/07/25 04:42:53;;;;;;;6.87;3.47;;;19.50;74.50;;;;;;5084143;28;21047;-79
2023/07/25 04:45:21;;;;;;;6.77;2.93;;;19.50;74.50;;;;;;5088071;28;20527;-80
2023/07/25 04:47:49;;;;;;;9.20;3.47;;;19.60;74.60;;;;;;5082974;28;20552;-78
2023/07/25 04:50:17;;;;;;;7.93;3.70;;;19.60;74.70;;;;;;5085985;28;20472;-79
2023/07/25 04:52:46;;;;;;;9.50;3.50;;;19.60;74.70;;;;;;5092078;28;20484;-80
2023/07/25 04:55:15;;;;;;;8.87;3.70;;;19.60;74.80;;;;;;5078386;28;20479;-80
2023/07/25 04:57:43;;;;;;;8.50;3.53;;;19.60;74.90;;;;;;5080379;28;20951;-80
2023/07/25 05:00:12;;;;;;;11.23;3.77;;;19.60;74.90;;;;;;5082151;28;20565;-80
2023/07/25 05:02:41;;;;;;;7.50;3.93;;;19.60;75.10;;;;;;5084424;28;20540;-80
2023/07/25 05:05:13;;;;;;;7.20;3.70;;;19.60;75.20;;;;;;5079869;28;20448;-80
2023/07/25 05:07:41;;;;;;;8.07;3.40;;;19.70;75.30;;;;;;5086658;28;20487;-80
2023/07/25 05:10:11;;;;;;;10.30;4.17;;;19.70;75.50;;;;;;5088988;28;20456;-80
2023/07/25 05:12:39;;;;;;;9.33;3.03;;;19.70;75.60;;;;;;5090980;28;20457;-80
2023/07/25 05:15:08;;;;;;;7.37;3.30;;;19.80;75.70;;;;;;5090946;28;20487;-80
2023/07/25 05:17:35;;;;;;;7.03;3.77;;;19.90;75.80;;;;;;5091147;28;20541;-80
2023/07/25 05:20:04;;;;;;;6.53;3.60;;;20.00;75.80;;;;;;5094289;28;20452;-80
2023/07/25 05:22:33;;;;;;;6.53;3.37;;;20.00;75.70;;;;;;5089509;28;20459;-80
2023/07/25 05:25:02;;;;;;;7.70;3.90;;;20.00;75.80;;;;;;5091367;28;20464;-80
2023/07/25 05:27:31;;;;;;;7.70;3.50;;;20.10;75.90;;;;;;5108113;28;20513;-80
2023/07/25 05:29:59;;;;;;;7.33;3.87;;;20.20;76.00;;;;;;5091802;28;20473;-79
2023/07/25 05:32:27;;;;;;;13.00;4.60;;;20.20;76.10;;;;;;5089272;28;20563;-80
2023/07/25 05:34:55;;;;;;;8.00;3.83;;;20.20;76.10;;;;;;5085834;28;20563;-80
2023/07/25 05:37:33;;;;;;;8.23;3.90;;;20.30;76.20;;;;;;5088077;28;20530;-80
2023/07/25 05:40:02;;;;;;;7.50;3.90;;;20.40;76.30;;;;;;5088040;28;20457;-79
2023/07/25 05:42:32;;;;;;;8.70;3.77;;;20.40;76.30;;;;;;5098279;28;20993;-80
2023/07/25 05:45:01;;;;;;;7.23;4.07;;;20.40;76.40;;;;;;5085404;28;20456;-79
2023/07/25 05:47:29;;;;;;;9.53;3.80;;;20.50;76.50;;;;;;5080470;28;20470;-80
2023/07/25 05:49:58;;;;;;;7.40;3.60;;;20.50;76.60;;;;;;5083053;28;20485;-80
2023/07/25 05:52:26;;;;;;;10.00;3.10;;;20.60;76.60;;;;;;5087504;28;20904;-80
2023/07/25 05:54:53;;;;;;;8.90;3.43;;;20.50;76.50;;;;;;5088680;28;20473;-80
2023/07/25 05:57:21;;;;;;;7.50;2.90;;;20.50;76.60;;;;;;5088646;28;20544;-79
2023/07/25 05:59:51;;;;;;;7.07;3.13;;;20.50;76.50;;;;;;5091396;28;20459;-80
2023/07/25 06:02:20;;;;;;;7.83;3.40;;;20.50;76.50;;;;;;5090005;28;20919;-80
2023/07/25 06:04:48;;;;;;;6.87;3.13;;;20.50;76.30;;;;;;5091126;28;20576;-80
2023/07/25 06:07:23;;;;;;;5.50;2.63;;;20.60;76.20;;;;;;5088691;28;20489;-80
2023/07/25 06:09:51;;;;;;;7.60;2.90;;;20.60;76.10;;;;;;5089917;28;20457;-79
2023/07/25 06:12:19;;;;;;;5.57;3.20;;;20.60;76.00;;;;;;5089464;28;20457;-80
2023/07/25 06:14:47;;;;;;;7.53;3.17;;;20.60;76.00;;;;;;5094599;28;20494;-80
2023/07/25 06:17:16;;;;;;;6.90;3.10;;;20.70;75.90;;;;;;5087102;28;20447;-79
2023/07/25 06:19:44;;;;;;;5.50;2.73;;;20.70;75.80;;;;;;5091172;28;20453;-80
2023/07/25 06:22:16;;;;;;;7.03;3.60;;;20.70;75.90;;;;;;5094668;28;20448;-80
2023/07/25 06:24:44;;;;;;;7.63;3.70;;;20.70;75.80;;;;;;5066932;28;20440;-80
2023/07/25 06:27:12;;;;;;;6.10;3.17;;;20.70;75.80;;;;;;5085402;28;20481;-80
2023/07/25 06:29:40;;;;;;;6.73;3.37;;;20.70;75.80;;;;;;5088952;28;20455;-81
2023/07/25 06:32:08;;;;;;;7.27;3.03;;;20.80;75.80;;;;;;5090320;28;20479;-80
2023/07/25 06:34:38;;;;;;;6.33;3.30;;;20.80;75.60;;;;;;5086866;28;20527;-79
2023/07/25 06:37:06;;;;;;;8.20;3.20;;;20.90;75.60;;;;;;5086174;28;20456;-80
2023/07/25 06:39:34;;;;;;;7.43;3.80;;;20.90;75.60;;;;;;5089899;28;20441;-79
2023/07/25 06:42:04;;;;;;;6.50;3.27;;;20.90;75.70;;;;;;5089669;28;20445;-79
2023/07/25 06:44:33;;;;;;;5.80;3.23;;;20.90;75.60;;;;;;5088427;28;20457;-79
2023/07/25 06:47:01;;;;;;;8.37;2.80;;;20.90;75.60;;;;;;5086481;28;20887;-79
2023/07/25 06:49:30;;;;;;;6.80;2.93;;;20.90;75.60;;;;;;5088897;28;20460;-79
2023/07/25 06:52:00;;;;;;;6.67;3.40;;;21.00;75.60;;;;;;5089165;28;20536;-80
2023/07/25 06:54:28;;;;;;;8.30;3.40;;;21.00;75.60;;;;;;5082732;28;20646;-80
2023/07/25 06:56:56;;;;;;;6.10;3.27;;;21.00;75.60;;;;;;5089093;28;20483;-81
2023/07/25 06:59:25;;;;;;;7.47;3.37;;;21.00;75.60;;;;;;5085421;28;20472;-80
2023/07/25 07:01:53;;;;;;;7.97;4.10;;;21.00;75.60;;;;;;5083771;28;20473;-81
2023/07/25 07:04:21;;;;;;;8.07;3.60;;;21.00;75.80;;;;;;5087865;28;20461;-80
2023/07/25 07:06:49;;;;;;;7.00;3.20;;;21.00;75.90;;;;;;5086425;28;20454;-80
2023/07/25 07:09:19;;;;;;;7.17;3.23;;;21.00;75.90;;;;;;5086272;28;21017;-81
2023/07/25 07:11:47;;;;;;;6.50;3.40;;;21.00;76.00;;;;;;5081568;28;21052;-79
2023/07/25 07:14:15;;;;;;;6.97;3.70;;;21.00;76.10;;;;;;5082189;28;20446;-80
2023/07/25 07:16:42;;;;;;;8.30;3.33;;;21.00;76.10;;;;;;5087518;28;20463;-81
2023/07/25 07:19:10;;;;;;;10.27;3.63;;;21.00;76.30;;;;;;5084071;28;20441;-80
2023/07/25 07:21:38;;;;;;;6.10;3.30;;;21.00;76.30;;;;;;5085097;28;20462;-79
2023/07/25 07:24:06;;;;;;;8.40;3.40;;;21.00;76.30;;;;;;5087802;28;20448;-80
2023/07/25 07:26:36;;;;;;;6.30;2.97;;;21.00;76.40;;;;;;5098974;28;20469;-80
2023/07/25 07:29:04;;;;;;;8.33;3.27;;;21.00;76.50;;;;;;5077760;28;20542;-81
2023/07/25 07:31:32;;;;;;;8.60;3.87;;;21.00;76.50;;;;;;5079272;28;20476;-79
2023/07/25 07:34:10;;;;;;;7.30;3.97;;;21.00;76.60;;;;;;5077802;28;20451;-80
2023/07/25 07:36:38;;;;;;;7.67;3.47;;;21.00;76.70;;;;;;5084038;28;20488;-79
2023/07/25 07:39:06;;;;;;;7.33;3.77;;;21.00;76.70;;;;;;5086045;28;20457;-80
2023/07/25 07:41:42;;;;;;;6.63;3.97;;;21.10;76.70;;;;;;5081483;28;20453;-80
2023/07/25 07:44:10;;;;;;;6.77;3.80;;;21.10;76.70;;;;;;5083305;28;20484;-80
2023/07/25 07:46:37;;;;;;;7.50;3.67;;;21.10;76.70;;;;;;5086478;28;20494;-80
2023/07/25 07:49:06;;;;;;;7.90;3.53;;;21.10;76.70;;;;;;5089580;28;20510;-80
2023/07/25 07:51:34;;;;;;;9.10;4.07;;;21.10;76.80;;;;;;5086935;28;20462;-80
2023/07/25 07:54:02;;;;;;;12.60;4.10;;;21.10;76.90;;;;;;5082399;28;20481;-80
2023/07/25 07:56:30;;;;;;;6.97;3.73;;;21.10;77.00;;;;;;5079048;28;21092;-80
2023/07/25 07:58:59;;;;;;;7.97;4.27;;;21.10;77.00;;;;;;5079712;28;20552;-79
2023/07/25 08:01:28;;;;;;;8.90;4.53;;;21.10;77.10;;;;;;5084419;28;21030;-79
2023/07/25 08:03:57;;;;;;;10.03;4.40;;;21.10;77.10;;;;;;5081115;28;20479;-80
2023/07/25 08:06:25;;;;;;;7.53;4.13;;;21.10;77.10;;;;;;5084039;28;20523;-81
2023/07/25 08:08:53;;;;;;;8.23;4.73;;;21.10;77.20;;;;;;5090099;28;20464;-79
2023/07/25 08:11:20;;;;;;;9.77;3.80;;;21.10;77.40;;;;;;5084042;28;20451;-80
2023/07/25 08:13:49;;;;;;;8.37;4.33;;;21.10;77.50;;;;;;5082508;28;20447;-79
2023/07/25 08:16:18;;;;;;;9.03;4.60;;;21.10;77.60;;;;;;5082982;28;20576;-79
2023/07/25 08:18:46;;;;;;;9.07;4.13;;;21.10;77.60;;;;;;5087800;28;20549;-80
2023/07/25 08:21:14;;;;;;;9.37;4.73;;;21.10;77.70;;;;;;5081358;28;20448;-79
2023/07/25 08:23:48;;;;;;;8.17;4.20;;;21.10;77.70;;;;;;5085049;28;20540;-80
2023/07/25 08:26:16;;;;;;;7.20;4.13;;;21.10;77.80;;;;;;5084680;28;20538;-81
2023/07/25 08:28:44;;;;;;;11.00;4.50;;;21.00;77.70;;;;;;5085957;28;20531;-80
2023/07/25 08:31:12;;;;;;;8.67;3.93;;;21.00;77.80;;;;;;5077519;28;20473;-80
2023/07/25 08:33:42;;;;;;;11.23;4.93;;;20.90;78.10;;;;;;5079994;28;21425;-81
2023/07/25 08:36:10;;;;;;;8.30;3.90;;;21.00;78.30;;;;;;5082751;28;20509;-81
2023/07/25 08:38:41;;;;;;;7.33;4.43;;;21.00;78.20;;;;;;5082385;28;20540;-81
2023/07/25 08:41:13;;;;;;;7.33;4.43;;;21.10;78.20;;;;;;5086367;28;20448;-80
2023/07/25 08:43:41;;;;;;;8.73;3.97;;;21.10;78.30;;;;;;5087359;28;20764;-80
2023/07/25 08:46:11;;;;;;;8.00;4.10;;;21.10;78.20;;;;;;5088014;28;20554;-81
2023/07/25 08:48:42;;;;;;;5.83;3.40;;;21.10;78.30;;;;;;5090076;28;20454;-80
2023/07/25 08:51:17;;;;;;;8.03;4.07;;;21.20;78.40;;;;;;5090430;28;21240;-79
2023/07/25 08:53:54;;;;;;;6.00;3.40;;;21.20;78.40;;;;;;5086504;28;20447;-79
2023/07/25 08:56:24;;;;;;;6.87;3.93;;;21.30;78.40;;;;;;5084145;28;20476;-80
2023/07/25 08:58:53;;;;;;;5.43;3.20;;;21.30;78.30;;;;;;5088529;28;20922;-81
2023/07/25 09:01:22;;;;;;;5.83;3.43;;;21.30;78.10;;;;;;5088916;28;20978;-79
2023/07/25 09:03:59;;;;;;;8.23;4.17;;;21.40;78.10;;;;;;5086250;28;20959;-79
2023/07/25 09:06:28;;;;;;;6.43;3.77;;;21.40;78.20;;;;;;5089027;28;20529;-80
2023/07/25 09:08:56;;;;;;;6.33;3.90;;;21.50;78.30;;;;;;5085863;28;20453;-80
2023/07/25 09:11:25;;;;;;;7.70;4.23;;;21.60;78.30;;;;;;5084271;28;20444;-80
2023/07/25 09:13:54;;;;;;;6.23;3.83;;;21.70;78.20;;;;;;5088817;28;20518;-80
2023/07/25 09:16:22;;;;;;;7.23;3.57;;;21.80;78.00;;;;;;5090030;28;20530;-80
2023/07/25 09:18:50;;;;;;;6.53;3.47;;;21.90;77.90;;;;;;5090391;28;20444;-79
2023/07/25 09:21:19;;;;;;;5.63;3.30;;;22.00;77.80;;;;;;5087863;28;20448;-81
2023/07/25 09:23:54;;;;;;;9.13;3.63;;;22.00;77.60;;;;;;5080461;28;20563;-80
2023/07/25 09:26:24;;;;;;;4.60;2.40;;;22.10;77.30;;;;;;5089580;28;20494;-80
2023/07/25 09:28:54;;;;;;;5.47;2.80;;;22.10;77.20;;;;;;5092058;28;20453;-81
2023/07/25 09:31:27;;;;;;;5.33;2.53;;;22.10;76.90;;;;;;5090073;28;20470;-79
2023/07/25 09:33:56;;;;;;;5.40;3.20;;;22.10;76.90;;;;;;5092043;28;20464;-81
2023/07/25 09:36:30;;;;;;;6.43;2.57;;;22.20;76.70;;;;;;5093546;28;20484;-81
2023/07/25 09:38:58;;;;;;;6.23;2.50;;;22.20;76.50;;;;;;5089488;28;20452;-81
2023/07/25 09:41:27;;;;;;;6.10;2.83;;;22.20;76.40;;;;;;5103338;28;21127;-79
2023/07/25 09:44:01;;;;;;;7.47;3.20;;;22.20;76.20;;;;;;5083314;28;20536;-80
2023/07/25 09:46:29;;;;;;;5.47;2.63;;;22.30;76.10;;;;;;5087477;28;20449;-79
2023/07/25 09:48:57;;;;;;;5.37;2.50;;;22.30;75.70;;;;;;5089891;28;20909;-80
2023/07/25 09:51:26;;;;;;;4.97;2.50;;;22.30;75.50;;;;;;5088819;28;20444;-80
2023/07/25 09:53:58;;;;;;;5.40;2.73;;;22.30;75.40;;;;;;5089015;28;20444;-79
2023/07/25 09:56:27;;;;;;;5.37;2.87;;;22.40;75.40;;;;;;5089412;28;20557;-80
2023/07/25 09:58:55;;;;;;;5.63;2.80;;;22.40;75.20;;;;;;5080565;28;20453;-81
2023/07/25 10:01:27;;;;;;;7.83;2.53;;;22.40;75.00;;;;;;5087022;28;20836;-81
2023/07/25 10:03:55;;;;;;;5.77;2.90;;;22.50;74.80;;;;;;5085606;28;20448;-80
2023/07/25 10:06:26;;;;;;;5.17;2.63;;;22.40;74.60;;;;;;5086221;28;20452;-80
2023/07/25 10:08:56;;;;;;;8.93;3.20;;;22.40;74.50;;;;;;5083463;28;20482;-80
2023/07/25 10:11:25;;;;;;;8.80;3.10;;;22.30;74.60;;;;;;5087734;28;20483;-80
2023/07/25 10:13:53;;;;;;;10.20;2.30;;;22.20;74.70;;;;;;5104887;28;20861;-79
2023/07/25 10:16:23;;;;;;;7.03;2.57;;;22.10;74.80;;;;;;5087432;28;20496;-81
2023/07/25 10:18:54;;;;;;;8.63;3.17;;;22.10;75.00;;;;;;5088157;28;20482;-80
2023/07/25 10:21:27;;;;;;;5.80;2.57;;;22.00;75.30;;;;;;5089515;28;20461;-80
2023/07/25 10:23:59;;;;;;;5.83;2.57;;;22.10;75.60;;;;;;5105338;28;20457;-81
2023/07/25 10:26:28;;;;;;;5.33;2.60;;;22.10;75.60;;;;;;5087305;28;20450;-80
2023/07/25 10:28:59;;;;;;;8.80;2.83;;;22.10;75.80;;;;;;5086929;28;20457;-79
2023/07/25 10:31:33;;;;;;;5.53;2.37;;;22.20;76.00;;;;;;5085007;28;21291;-80
2023/07/25 10:34:04;;;;;;;6.13;2.90;;;22.30;76.10;;;;;;5087132;28;21166;-80
2023/07/25 10:36:33;;;;;;;5.20;2.77;;;22.30;76.00;;;;;;5088568;28;20481;-80
2023/07/25 10:39:08;;;;;;;4.90;2.20;;;22.40;76.10;;;;;;5088226;28;21119;-80
2023/07/25 10:41:36;;;;;;;5.80;2.27;;;22.40;76.30;;;;;;5089477;28;20463;-80
2023/07/25 10:44:05;;;;;;;4.77;2.27;;;22.50;76.20;;;;;;5089015;28;20449;-80
2023/07/25 10:46:34;;;;;;;4.50;2.13;;;22.60;76.20;;;;;;5081770;28;20541;-79
2023/07/25 10:49:23;;;;;;;5.20;2.10;;;22.70;76.30;;;;;;5089881;28;20962;-80
2023/07/25 10:51:55;;;;;;;5.77;2.57;;;22.70;76.10;;;;;;5074636;28;20823;-80
2023/07/25 10:54:24;;;;;;;7.73;2.70;;;22.70;75.90;;;;;;5080993;28;20456;-81
2023/07/25 10:57:11;;;;;;;5.00;2.40;;;22.70;75.70;;;;;;5084934;28;20484;-81
2023/07/25 10:59:59;;;;;;;5.20;2.23;;;22.70;75.50;;;;;;5084034;28;20457;-80
2023/07/25 11:02:31;;;;;;;7.20;2.50;;;22.70;75.30;;;;;;5084260;28;20502;-79
2023/07/25 11:05:22;;;;;;;6.23;2.53;;;22.70;75.30;;;;;;5087197;28;20481;-79
2023/07/25 11:07:54;;;;;;;6.03;2.77;;;22.70;75.20;;;;;;5083083;28;20433;-81
2023/07/25 11:10:24;;;;;;;4.80;2.20;;;22.70;75.10;;;;;;5087921;28;20543;-80
2023/07/25 11:12:54;;;;;;;5.60;2.50;;;22.70;75.00;;;;;;5087252;28;20540;-79
2023/07/25 11:15:23;;;;;;;5.07;2.27;;;22.70;74.80;;;;;;5102061;27;20530;-79
2023/07/25 11:18:11;;;;;;;5.93;2.00;;;22.60;74.80;;;;;;5086537;28;20566;-79
2023/07/25 11:20:39;;;;;;;5.53;1.93;;;22.50;74.60;;;;;;5086822;28;20457;-80
2023/07/25 11:23:08;;;;;;;4.60;1.77;;;22.40;74.30;;;;;;5087629;28;20468;-80
2023/07/25 11:25:36;;;;;;;4.50;1.60;;;22.30;74.20;;;;;;5084480;28;20845;-80
2023/07/25 11:28:06;;;;;;;6.10;1.93;;;22.10;74.10;;;;;;5082734;28;20532;-82
2023/07/25 11:30:34;;;;;;;5.30;2.03;;;22.00;74.10;;;;;;5085250;28;20493;-81
2023/07/25 11:33:03;;;;;;;8.80;1.87;;;21.90;74.10;;;;;;5084374;28;20462;-80
2023/07/25 11:35:30;;;;;;;6.80;1.80;;;21.80;74.20;;;;;;5104219;28;21176;-80
2023/07/25 11:38:00;;;;;;;5.37;2.20;;;21.70;74.50;;;;;;5101315;28;20481;-80
2023/07/25 11:40:31;;;;;;;6.17;2.13;;;21.70;74.80;;;;;;5084098;28;20448;-80
2023/07/25 11:42:59;;;;;;;4.87;2.40;;;21.80;75.10;;;;;;5084717;28;21013;-80
2023/07/25 11:45:28;;;;;;;4.60;2.13;;;21.80;75.40;;;;;;5082260;28;20544;-79
2023/07/25 11:47:57;;;;;;;4.20;1.40;;;21.80;75.60;;;;;;5085791;28;20923;-81
2023/07/25 11:50:25;;;;;;;4.63;1.50;;;21.90;75.50;;;;;;5084435;28;20454;-81
2023/07/25 11:53:00;;;;;;;4.30;1.30;;;21.90;75.50;;;;;;5084843;28;20470;-79
2023/07/25 11:55:29;;;;;;;5.20;1.50;;;21.80;75.40;;;;;;5082068;28;20447;-79
2023/07/25 11:58:02;;;;;;;4.00;1.00;;;21.80;75.00;;;;;;5088598;28;20563;-80
2023/07/25 12:00:39;;;;;;;3.80;1.10;;;21.60;75.00;;;;;;5081264;28;20592;-80
2023/07/25 12:03:17;;;;;;;4.17;1.10;;;21.40;75.10;;;;;;5083288;28;22162;-79
2023/07/25 12:05:52;;;;;;;3.90;1.10;;;21.30;75.20;;;;;;5085023;28;20514;-80
2023/07/25 12:08:35;;;;;;;4.90;1.23;;;21.20;75.20;;;;;;5084504;28;20448;-80
2023/07/25 12:11:04;;;;;;;3.73;1.10;;;21.10;75.40;;;;;;5078323;28;20453;-80
2023/07/25 12:13:42;;;;;;;4.43;1.40;;;21.00;75.40;;;;;;5080396;28;20449;-80
2023/07/25 12:16:23;;;;;;;5.50;1.20;;;21.00;75.30;;;;;;5083586;28;20555;-80
2023/07/25 12:18:52;;;;;;;4.57;1.57;;;20.80;75.40;;;;;;5083392;28;20803;-80
2023/07/25 12:21:28;;;;;;;3.40;0.70;;;20.80;75.40;;;;;;5083132;28;20453;-80
2023/07/25 12:23:59;;;;;;;3.90;1.13;;;20.80;75.30;;;;;;5083507;28;20482;-81
2023/07/25 12:26:30;;;;;;;4.80;0.90;;;20.90;75.40;;;;;;5087335;28;20456;-80
2023/07/25 12:29:00;;;;;;;3.90;0.80;;;20.90;75.10;;;;;;5095306;28;20452;-79
2023/07/25 12:31:28;;;;;;;3.40;0.70;;;20.90;74.80;;;;;;5090455;28;20559;-79
2023/07/25 12:33:57;;;;;;;5.07;0.90;;;20.90;74.60;;;;;;5087220;28;21150;-79
2023/07/25 12:36:25;;;;;;;4.73;1.10;;;20.80;74.60;;;;;;5092163;28;20457;-80
2023/07/25 12:38:53;;;;;;;3.70;0.80;;;20.80;74.70;;;;;;5090073;28;20465;-80
2023/07/25 12:41:22;;;;;;;3.47;0.73;;;20.80;74.70;;;;;;5093280;28;20551;-80
2023/07/25 12:43:50;;;;;;;3.23;0.70;;;20.80;74.60;;;;;;5090986;28;21206;-80
2023/07/25 12:46:21;;;;;;;3.80;0.80;;;20.80;74.60;;;;;;5089093;28;20466;-80
2023/07/25 12:48:49;;;;;;;5.93;1.13;;;20.80;74.60;;;;;;5091740;28;20447;-81
2023/07/25 12:51:17;;;;;;;3.97;1.40;;;20.90;74.40;;;;;;5096283;28;20460;-81
2023/07/25 12:53:45;;;;;;;4.10;1.20;;;20.90;74.30;;;;;;5087851;28;20539;-81
2023/07/25 12:56:13;;;;;;;3.60;1.10;;;20.90;74.30;;;;;;5086788;28;20549;-79
2023/07/25 12:58:41;;;;;;;3.60;1.27;;;21.00;74.10;;;;;;5089155;28;20493;-80